sensor_id;sensor_type;location;lat;lon;timestamp;temperature;humidity
26503;DHT22;14177;51.520;6.764;2023-04-25T00:02:14;7.20;99.90
26503;DHT22;14177;51.520;6.764;2023-04-25T00:04:41;7.20;99.90
26503;DHT22;14177;51.520;6.764;2023-04-25T00:07:09;7.20;99.90
26503;DHT22;14177;51.520;6.764;2023-04-25T00:09:37;7.20;99.90
26503;DHT22;14177;51.520;6.764;2023-04-25T00:12:04;7.20;99.90
26503;DHT22;14177;51.520;6.764;2023-04-25T00:14:31;7.20;99.90
26503;DHT22;14177;51.520;6.764;2023-04-25T00:17:01;7.20;99.90
26503;DHT22;14177;51.520;6.764;2023-04-25T00:19:29;7.20;99.90
26503;DHT22;14177;51.520;6.764;2023-04-25T00:21:56;7.20;99.90
26503;DHT22;14177;51.520;6.764;2023-04-25T00:24:24;7.20;99.90
26503;DHT22;14177;51.520;6.764;2023-04-25T00:26:51;7.20;99.90
26503;DHT22;14177;51.520;6.764;2023-04-25T00:29:18;7.20;99.90
26503;DHT22;14177;51.520;6.764;2023-04-25T00:31:45;7.20;99.90
26503;DHT22;14177;51.520;6.764;2023-04-25T00:34:12;7.20;99.90
26503;DHT22;14177;51.520;6.764;2023-04-25T00:36:39;7.20;99.90
26503;DHT22;14177;51.520;6.764;2023-04-25T00:39:06;7.20;99.90
26503;DHT22;14177;51.520;6.764;2023-04-25T00:41:33;7.10;99.90
26503;DHT22;14177;51.520;6.764;2023-04-25T00:44:01;7.20;99.90
26503;DHT22;14177;51.520;6.764;2023-04-25T00:46:31;7.20;99.90
26503;DHT22;14177;51.520;6.764;2023-04-25T00:48:58;7.20;99.90
26503;DHT22;14177;51.520;6.764;2023-04-25T00:51:25;7.10;99.90
26503;DHT22;14177;51.520;6.764;2023-04-25T00:53:53;7.10;99.90
26503;DHT22;14177;51.520;6.764;2023-04-25T00:56:21;7.10;99.90
26503;DHT22;14177;51.520;6.764;2023-04-25T00:58:49;7.10;99.90
26503;DHT22;14177;51.520;6.764;2023-04-25T01:01:21;7.10;99.90
26503;DHT22;14177;51.520;6.764;2023-04-25T01:03:49;7.00;99.90
26503;DHT22;14177;51.520;6.764;2023-04-25T01:06:18;7.00;99.90
26503;DHT22;14177;51.520;6.764;2023-04-25T01:08:45;7.10;99.90
26503;DHT22;14177;51.520;6.764;2023-04-25T01:11:12;7.10;99.90
26503;DHT22;14177;51.520;6.764;2023-04-25T01:13:42;7.10;99.90
26503;DHT22;14177;51.520;6.764;2023-04-25T01:16:09;7.10;99.90
26503;DHT22;14177;51.520;6.764;2023-04-25T01:18:38;7.10;99.90
26503;DHT22;14177;51.520;6.764;2023-04-25T01:21:11;7.10;99.90
26503;DHT22;14177;51.520;6.764;2023-04-25T01:23:41;7.10;99.90
26503;DHT22;14177;51.520;6.764;2023-04-25T01:26:10;7.20;99.90
26503;DHT22;14177;51.520;6.764;2023-04-25T01:28:39;7.10;99.90
26503;DHT22;14177;51.520;6.764;2023-04-25T01:31:12;7.20;99.90
26503;DHT22;14177;51.520;6.764;2023-04-25T01:33:39;7.20;99.90
26503;DHT22;14177;51.520;6.764;2023-04-25T01:36:07;7.20;99.90
26503;DHT22;14177;51.520;6.764;2023-04-25T01:38:35;7.20;99.90
26503;DHT22;14177;51.520;6.764;2023-04-25T01:41:02;7.20;99.90
26503;DHT22;14177;51.520;6.764;2023-04-25T01:43:29;7.20;99.90
26503;DHT22;14177;51.520;6.764;2023-04-25T01:45:57;7.20;99.90
26503;DHT22;14177;51.520;6.764;2023-04-25T01:48:24;7.20;99.90
26503;DHT22;14177;51.520;6.764;2023-04-25T01:50:52;7.20;99.90
26503;DHT22;14177;51.520;6.764;2023-04-25T01:53:19;7.20;99.90
26503;DHT22;14177;51.520;6.764;2023-04-25T01:55:47;7.20;99.90
26503;DHT22;14177;51.520;6.764;2023-04-25T01:58:17;7.30;99.90
26503;DHT22;14177;51.520;6.764;2023-04-25T02:01:16;7.30;99.90
26503;DHT22;14177;51.520;6.764;2023-04-25T02:03:52;7.20;99.90
26503;DHT22;14177;51.520;6.764;2023-04-25T02:06:25;7.30;99.90
26503;DHT22;14177;51.520;6.764;2023-04-25T02:08:55;7.20;99.90
26503;DHT22;14177;51.520;6.764;2023-04-25T02:11:23;7.20;99.90
26503;DHT22;14177;51.520;6.764;2023-04-25T02:14:12;7.20;99.90
26503;DHT22;14177;51.520;6.764;2023-04-25T02:16:49;7.20;99.90
26503;DHT22;14177;51.520;6.764;2023-04-25T02:19:18;7.20;99.90
26503;DHT22;14177;51.520;6.764;2023-04-25T02:21:46;7.20;99.90
26503;DHT22;14177;51.520;6.764;2023-04-25T02:24:13;7.20;99.90
26503;DHT22;14177;51.520;6.764;2023-04-25T02:26:40;7.20;99.90
26503;DHT22;14177;51.520;6.764;2023-04-25T02:29:09;7.20;99.90
26503;DHT22;14177;51.520;6.764;2023-04-25T02:31:36;7.20;99.90
26503;DHT22;14177;51.520;6.764;2023-04-25T02:34:03;7.20;99.90
26503;DHT22;14177;51.520;6.764;2023-04-25T02:36:35;7.20;99.90
26503;DHT22;14177;51.520;6.764;2023-04-25T02:39:02;7.20;99.90
26503;DHT22;14177;51.520;6.764;2023-04-25T02:41:29;7.20;99.90
26503;DHT22;14177;51.520;6.764;2023-04-25T02:43:56;7.20;99.90
26503;DHT22;14177;51.520;6.764;2023-04-25T02:46:23;7.20;99.90
26503;DHT22;14177;51.520;6.764;2023-04-25T02:49:05;7.30;99.90
26503;DHT22;14177;51.520;6.764;2023-04-25T02:51:33;7.20;99.90
26503;DHT22;14177;51.520;6.764;2023-04-25T02:54:00;7.20;99.90
26503;DHT22;14177;51.520;6.764;2023-04-25T02:56:28;7.20;99.90
26503;DHT22;14177;51.520;6.764;2023-04-25T02:58:55;7.20;99.90
26503;DHT22;14177;51.520;6.764;2023-04-25T03:01:22;7.20;99.90
26503;DHT22;14177;51.520;6.764;2023-04-25T03:03:49;7.20;99.90
26503;DHT22;14177;51.520;6.764;2023-04-25T03:06:17;7.20;99.90
26503;DHT22;14177;51.520;6.764;2023-04-25T03:08:44;7.10;99.90
26503;DHT22;14177;51.520;6.764;2023-04-25T03:11:11;7.20;99.90
26503;DHT22;14177;51.520;6.764;2023-04-25T03:13:38;7.10;99.90
26503;DHT22;14177;51.520;6.764;2023-04-25T03:16:05;7.10;99.90
26503;DHT22;14177;51.520;6.764;2023-04-25T03:18:33;7.10;99.90
26503;DHT22;14177;51.520;6.764;2023-04-25T03:21:00;7.10;99.90
26503;DHT22;14177;51.520;6.764;2023-04-25T03:23:30;7.10;99.90
26503;DHT22;14177;51.520;6.764;2023-04-25T03:25:57;7.10;99.90
26503;DHT22;14177;51.520;6.764;2023-04-25T03:28:24;7.10;99.90
26503;DHT22;14177;51.520;6.764;2023-04-25T03:30:52;7.10;99.90
26503;DHT22;14177;51.520;6.764;2023-04-25T03:33:21;7.00;99.90
26503;DHT22;14177;51.520;6.764;2023-04-25T03:35:49;7.00;99.90
26503;DHT22;14177;51.520;6.764;2023-04-25T03:38:17;7.00;99.90
26503;DHT22;14177;51.520;6.764;2023-04-25T03:40:45;7.00;99.90
26503;DHT22;14177;51.520;6.764;2023-04-25T03:43:38;7.00;99.90
26503;DHT22;14177;51.520;6.764;2023-04-25T03:46:09;7.00;99.90
26503;DHT22;14177;51.520;6.764;2023-04-25T03:48:38;7.00;99.90
26503;DHT22;14177;51.520;6.764;2023-04-25T03:51:06;7.00;99.90
26503;DHT22;14177;51.520;6.764;2023-04-25T03:53:37;7.00;99.90
26503;DHT22;14177;51.520;6.764;2023-04-25T03:56:30;6.90;99.90
26503;DHT22;14177;51.520;6.764;2023-04-25T03:59:04;6.90;99.90
26503;DHT22;14177;51.520;6.764;2023-04-25T04:01:31;6.90;99.90
26503;DHT22;14177;51.520;6.764;2023-04-25T04:03:58;6.90;99.90
26503;DHT22;14177;51.520;6.764;2023-04-25T04:06:26;6.80;99.90
26503;DHT22;14177;51.520;6.764;2023-04-25T04:09:01;6.80;99.90
26503;DHT22;14177;51.520;6.764;2023-04-25T04:11:31;6.80;99.90
26503;DHT22;14177;51.520;6.764;2023-04-25T04:13:58;6.80;99.90
26503;DHT22;14177;51.520;6.764;2023-04-25T04:16:26;6.80;99.90
26503;DHT22;14177;51.520;6.764;2023-04-25T04:18:53;6.70;99.90
26503;DHT22;14177;51.520;6.764;2023-04-25T04:21:20;6.70;99.90
26503;DHT22;14177;51.520;6.764;2023-04-25T04:23:47;6.70;99.90
26503;DHT22;14177;51.520;6.764;2023-04-25T04:26:15;6.70;99.90
26503;DHT22;14177;51.520;6.764;2023-04-25T04:28:56;6.70;99.90
26503;DHT22;14177;51.520;6.764;2023-04-25T04:31:40;6.60;99.90
26503;DHT22;14177;51.520;6.764;2023-04-25T04:34:07;6.60;99.90
26503;DHT22;14177;51.520;6.764;2023-04-25T04:36:34;6.60;99.90
26503;DHT22;14177;51.520;6.764;2023-04-25T04:39:01;6.60;99.90
26503;DHT22;14177;51.520;6.764;2023-04-25T04:41:42;6.60;99.90
26503;DHT22;14177;51.520;6.764;2023-04-25T04:44:28;6.60;99.90
26503;DHT22;14177;51.520;6.764;2023-04-25T04:47:38;6.50;99.90
26503;DHT22;14177;51.520;6.764;2023-04-25T04:50:23;6.50;99.90
26503;DHT22;14177;51.520;6.764;2023-04-25T04:53:09;6.50;99.90
26503;DHT22;14177;51.520;6.764;2023-04-25T04:55:58;6.50;99.90
26503;DHT22;14177;51.520;6.764;2023-04-25T04:58:36;6.40;99.90
26503;DHT22;14177;51.520;6.764;2023-04-25T05:01:15;6.40;99.90
26503;DHT22;14177;51.520;6.764;2023-04-25T05:04:15;6.40;99.90
26503;DHT22;14177;51.520;6.764;2023-04-25T05:06:42;6.40;99.90
26503;DHT22;14177;51.520;6.764;2023-04-25T05:09:32;6.40;99.90
26503;DHT22;14177;51.520;6.764;2023-04-25T05:12:24;6.40;99.90
26503;DHT22;14177;51.520;6.764;2023-04-25T05:15:02;6.40;99.90
26503;DHT22;14177;51.520;6.764;2023-04-25T05:17:47;6.40;99.90
26503;DHT22;14177;51.520;6.764;2023-04-25T05:20:17;6.40;99.90
26503;DHT22;14177;51.520;6.764;2023-04-25T05:23:04;6.40;99.90
26503;DHT22;14177;51.520;6.764;2023-04-25T05:25:49;6.40;99.90
26503;DHT22;14177;51.520;6.764;2023-04-25T05:28:40;6.40;99.90
26503;DHT22;14177;51.520;6.764;2023-04-25T05:31:27;6.50;99.90
26503;DHT22;14177;51.520;6.764;2023-04-25T05:34:02;6.60;99.90
26503;DHT22;14177;51.520;6.764;2023-04-25T05:36:41;6.60;99.90
26503;DHT22;14177;51.520;6.764;2023-04-25T05:39:07;6.60;99.90
26503;DHT22;14177;51.520;6.764;2023-04-25T05:41:53;6.60;99.90
26503;DHT22;14177;51.520;6.764;2023-04-25T05:44:41;6.60;99.90
26503;DHT22;14177;51.520;6.764;2023-04-25T05:47:37;6.70;99.90
26503;DHT22;14177;51.520;6.764;2023-04-25T05:50:13;6.70;99.90
26503;DHT22;14177;51.520;6.764;2023-04-25T05:52:50;6.80;99.90
26503;DHT22;14177;51.520;6.764;2023-04-25T05:55:24;6.80;99.90
26503;DHT22;14177;51.520;6.764;2023-04-25T05:57:51;6.90;99.90
26503;DHT22;14177;51.520;6.764;2023-04-25T06:00:19;6.90;99.90
26503;DHT22;14177;51.520;6.764;2023-04-25T06:02:49;7.00;99.90
26503;DHT22;14177;51.520;6.764;2023-04-25T06:05:17;7.10;99.90
26503;DHT22;14177;51.520;6.764;2023-04-25T06:07:46;7.00;99.90
26503;DHT22;14177;51.520;6.764;2023-04-25T06:10:13;7.10;99.90
26503;DHT22;14177;51.520;6.764;2023-04-25T06:12:42;7.20;99.90
26503;DHT22;14177;51.520;6.764;2023-04-25T06:15:09;7.30;99.90
26503;DHT22;14177;51.520;6.764;2023-04-25T06:17:53;7.40;99.90
26503;DHT22;14177;51.520;6.764;2023-04-25T06:20:21;7.50;99.90
26503;DHT22;14177;51.520;6.764;2023-04-25T06:22:51;7.60;99.90
26503;DHT22;14177;51.520;6.764;2023-04-25T06:25:22;7.60;99.90
26503;DHT22;14177;51.520;6.764;2023-04-25T06:27:50;7.70;99.90
26503;DHT22;14177;51.520;6.764;2023-04-25T06:30:17;7.80;99.90
26503;DHT22;14177;51.520;6.764;2023-04-25T06:32:53;8.00;99.90
26503;DHT22;14177;51.520;6.764;2023-04-25T06:35:21;8.00;99.90
26503;DHT22;14177;51.520;6.764;2023-04-25T06:37:48;8.10;99.90
26503;DHT22;14177;51.520;6.764;2023-04-25T06:40:18;8.00;99.90
26503;DHT22;14177;51.520;6.764;2023-04-25T06:42:45;7.90;99.90
26503;DHT22;14177;51.520;6.764;2023-04-25T06:45:41;7.90;99.90
26503;DHT22;14177;51.520;6.764;2023-04-25T06:48:10;7.80;99.90
26503;DHT22;14177;51.520;6.764;2023-04-25T06:50:37;7.80;99.90
26503;DHT22;14177;51.520;6.764;2023-04-25T06:53:04;7.80;99.90
26503;DHT22;14177;51.520;6.764;2023-04-25T06:55:31;7.90;99.90
26503;DHT22;14177;51.520;6.764;2023-04-25T06:58:13;7.90;99.90
26503;DHT22;14177;51.520;6.764;2023-04-25T07:00:58;7.90;99.90
26503;DHT22;14177;51.520;6.764;2023-04-25T07:03:26;8.00;99.90
26503;DHT22;14177;51.520;6.764;2023-04-25T07:06:00;8.00;99.90
26503;DHT22;14177;51.520;6.764;2023-04-25T07:08:29;8.00;99.90
26503;DHT22;14177;51.520;6.764;2023-04-25T07:10:57;8.00;99.90
26503;DHT22;14177;51.520;6.764;2023-04-25T07:13:25;8.10;99.90
26503;DHT22;14177;51.520;6.764;2023-04-25T07:15:52;8.40;99.90
26503;DHT22;14177;51.520;6.764;2023-04-25T07:18:22;8.60;99.90
26503;DHT22;14177;51.520;6.764;2023-04-25T07:20:50;8.70;99.90
26503;DHT22;14177;51.520;6.764;2023-04-25T07:23:18;8.80;99.90
26503;DHT22;14177;51.520;6.764;2023-04-25T07:25:46;8.90;99.90
26503;DHT22;14177;51.520;6.764;2023-04-25T07:28:18;9.00;99.90
26503;DHT22;14177;51.520;6.764;2023-04-25T07:30:46;9.10;99.90
26503;DHT22;14177;51.520;6.764;2023-04-25T07:33:14;9.10;99.90
26503;DHT22;14177;51.520;6.764;2023-04-25T07:35:41;9.20;99.90
26503;DHT22;14177;51.520;6.764;2023-04-25T07:38:09;9.30;99.90
26503;DHT22;14177;51.520;6.764;2023-04-25T07:40:37;9.30;99.90
26503;DHT22;14177;51.520;6.764;2023-04-25T07:43:07;9.40;99.90
26503;DHT22;14177;51.520;6.764;2023-04-25T07:45:45;9.50;99.90
26503;DHT22;14177;51.520;6.764;2023-04-25T07:48:18;9.70;99.90
26503;DHT22;14177;51.520;6.764;2023-04-25T07:50:46;9.70;99.90
26503;DHT22;14177;51.520;6.764;2023-04-25T07:53:14;9.80;99.90
26503;DHT22;14177;51.520;6.764;2023-04-25T07:55:50;9.80;99.90
26503;DHT22;14177;51.520;6.764;2023-04-25T07:58:19;9.80;99.90
26503;DHT22;14177;51.520;6.764;2023-04-25T08:00:53;9.90;99.90
26503;DHT22;14177;51.520;6.764;2023-04-25T08:03:29;9.90;99.90
26503;DHT22;14177;51.520;6.764;2023-04-25T08:05:57;10.00;99.90
26503;DHT22;14177;51.520;6.764;2023-04-25T08:08:29;10.10;99.90
26503;DHT22;14177;51.520;6.764;2023-04-25T08:10:57;10.20;99.90
26503;DHT22;14177;51.520;6.764;2023-04-25T08:13:24;10.30;99.90
26503;DHT22;14177;51.520;6.764;2023-04-25T08:15:52;10.40;99.90
26503;DHT22;14177;51.520;6.764;2023-04-25T08:18:19;10.50;99.90
26503;DHT22;14177;51.520;6.764;2023-04-25T08:20:48;10.60;99.90
26503;DHT22;14177;51.520;6.764;2023-04-25T08:23:15;10.70;99.90
26503;DHT22;14177;51.520;6.764;2023-04-25T08:26:00;10.70;99.90
26503;DHT22;14177;51.520;6.764;2023-04-25T08:28:28;10.70;99.90
26503;DHT22;14177;51.520;6.764;2023-04-25T08:30:58;10.80;99.90
26503;DHT22;14177;51.520;6.764;2023-04-25T08:33:32;11.00;99.90
26503;DHT22;14177;51.520;6.764;2023-04-25T08:36:26;11.20;99.90
26503;DHT22;14177;51.520;6.764;2023-04-25T08:39:16;11.40;99.90
26503;DHT22;14177;51.520;6.764;2023-04-25T08:41:59;11.50;98.40
26503;DHT22;14177;51.520;6.764;2023-04-25T08:44:30;11.40;97.70
26503;DHT22;14177;51.520;6.764;2023-04-25T08:46:59;11.40;96.60
26503;DHT22;14177;51.520;6.764;2023-04-25T08:49:32;11.40;99.90
26503;DHT22;14177;51.520;6.764;2023-04-25T08:52:01;11.40;99.40
26503;DHT22;14177;51.520;6.764;2023-04-25T08:54:34;11.40;98.30
26503;DHT22;14177;51.520;6.764;2023-04-25T08:57:06;11.30;97.30
26503;DHT22;14177;51.520;6.764;2023-04-25T08:59:34;11.30;97.50
26503;DHT22;14177;51.520;6.764;2023-04-25T09:02:07;11.40;98.80
26503;DHT22;14177;51.520;6.764;2023-04-25T09:04:36;11.60;96.50
26503;DHT22;14177;51.520;6.764;2023-04-25T09:07:04;11.70;94.00
26503;DHT22;14177;51.520;6.764;2023-04-25T09:09:31;11.80;91.90
26503;DHT22;14177;51.520;6.764;2023-04-25T09:11:59;12.00;91.70
26503;DHT22;14177;51.520;6.764;2023-04-25T09:14:28;12.20;92.20
26503;DHT22;14177;51.520;6.764;2023-04-25T09:17:05;12.30;90.20
26503;DHT22;14177;51.520;6.764;2023-04-25T09:19:37;12.30;81.70
26503;DHT22;14177;51.520;6.764;2023-04-25T09:22:16;12.40;78.50
26503;DHT22;14177;51.520;6.764;2023-04-25T09:24:45;12.30;77.80
26503;DHT22;14177;51.520;6.764;2023-04-25T09:27:18;12.30;82.00
26503;DHT22;14177;51.520;6.764;2023-04-25T09:29:58;12.50;77.50
26503;DHT22;14177;51.520;6.764;2023-04-25T09:32:44;12.50;80.60
26503;DHT22;14177;51.520;6.764;2023-04-25T09:35:23;12.90;76.20
26503;DHT22;14177;51.520;6.764;2023-04-25T09:37:59;13.40;76.00
26503;DHT22;14177;51.520;6.764;2023-04-25T09:41:02;13.80;72.40
26503;DHT22;14177;51.520;6.764;2023-04-25T09:43:37;14.20;65.40
26503;DHT22;14177;51.520;6.764;2023-04-25T09:46:10;14.40;67.00
26503;DHT22;14177;51.520;6.764;2023-04-25T09:48:48;14.70;69.20
26503;DHT22;14177;51.520;6.764;2023-04-25T09:51:25;15.00;69.80
26503;DHT22;14177;51.520;6.764;2023-04-25T09:53:56;15.00;65.30
26503;DHT22;14177;51.520;6.764;2023-04-25T09:56:36;14.30;64.50
26503;DHT22;14177;51.520;6.764;2023-04-25T09:59:07;14.10;67.20
26503;DHT22;14177;51.520;6.764;2023-04-25T10:01:40;14.30;67.60
26503;DHT22;14177;51.520;6.764;2023-04-25T10:04:14;14.60;67.10
26503;DHT22;14177;51.520;6.764;2023-04-25T10:07:07;14.80;62.80
26503;DHT22;14177;51.520;6.764;2023-04-25T10:09:39;14.60;61.60
26503;DHT22;14177;51.520;6.764;2023-04-25T10:12:07;14.20;62.80
26503;DHT22;14177;51.520;6.764;2023-04-25T10:14:35;14.00;63.10
26503;DHT22;14177;51.520;6.764;2023-04-25T10:17:03;13.70;63.00
26503;DHT22;14177;51.520;6.764;2023-04-25T10:19:31;13.60;63.30
26503;DHT22;14177;51.520;6.764;2023-04-25T10:22:08;13.30;65.70
26503;DHT22;14177;51.520;6.764;2023-04-25T10:24:41;13.40;67.20
26503;DHT22;14177;51.520;6.764;2023-04-25T10:27:10;13.40;67.40
26503;DHT22;14177;51.520;6.764;2023-04-25T10:29:37;13.40;66.10
26503;DHT22;14177;51.520;6.764;2023-04-25T10:32:05;13.40;67.20
26503;DHT22;14177;51.520;6.764;2023-04-25T10:34:40;13.10;69.60
26503;DHT22;14177;51.520;6.764;2023-04-25T10:37:14;12.90;72.60
26503;DHT22;14177;51.520;6.764;2023-04-25T10:39:42;12.50;77.50
26503;DHT22;14177;51.520;6.764;2023-04-25T10:42:11;12.00;82.50
26503;DHT22;14177;51.520;6.764;2023-04-25T10:44:38;11.60;87.50
26503;DHT22;14177;51.520;6.764;2023-04-25T10:47:07;11.30;93.60
26503;DHT22;14177;51.520;6.764;2023-04-25T10:49:42;11.10;98.70
26503;DHT22;14177;51.520;6.764;2023-04-25T10:52:24;11.00;99.90
26503;DHT22;14177;51.520;6.764;2023-04-25T10:54:58;10.90;99.90
26503;DHT22;14177;51.520;6.764;2023-04-25T10:57:42;10.90;99.90
26503;DHT22;14177;51.520;6.764;2023-04-25T11:00:15;11.00;99.90
26503;DHT22;14177;51.520;6.764;2023-04-25T11:05:22;11.10;99.90
26503;DHT22;14177;51.520;6.764;2023-04-25T11:07:54;11.20;99.30
26503;DHT22;14177;51.520;6.764;2023-04-25T11:10:31;11.30;98.50
26503;DHT22;14177;51.520;6.764;2023-04-25T11:12:59;11.40;99.40
26503;DHT22;14177;51.520;6.764;2023-04-25T11:15:27;11.60;98.70
26503;DHT22;14177;51.520;6.764;2023-04-25T11:17:55;11.70;97.50
26503;DHT22;14177;51.520;6.764;2023-04-25T11:20:25;11.90;93.90
26503;DHT22;14177;51.520;6.764;2023-04-25T11:22:58;11.90;92.70
26503;DHT22;14177;51.520;6.764;2023-04-25T11:25:27;11.80;91.30
26503;DHT22;14177;51.520;6.764;2023-04-25T11:27:58;11.80;91.20
26503;DHT22;14177;51.520;6.764;2023-04-25T11:30:28;11.80;90.50
26503;DHT22;14177;51.520;6.764;2023-04-25T11:32:57;11.70;89.30
26503;DHT22;14177;51.520;6.764;2023-04-25T11:35:25;11.60;90.30
26503;DHT22;14177;51.520;6.764;2023-04-25T11:37:52;11.60;89.50
26503;DHT22;14177;51.520;6.764;2023-04-25T11:40:19;11.50;90.30
26503;DHT22;14177;51.520;6.764;2023-04-25T11:42:47;11.40;91.20
26503;DHT22;14177;51.520;6.764;2023-04-25T11:45:15;11.20;90.20
26503;DHT22;14177;51.520;6.764;2023-04-25T11:47:42;10.90;93.60
26503;DHT22;14177;51.520;6.764;2023-04-25T11:50:09;10.80;95.60
26503;DHT22;14177;51.520;6.764;2023-04-25T11:52:38;10.70;95.80
26503;DHT22;14177;51.520;6.764;2023-04-25T11:55:15;10.70;96.20
26503;DHT22;14177;51.520;6.764;2023-04-25T11:57:45;10.70;96.90
26503;DHT22;14177;51.520;6.764;2023-04-25T12:00:20;10.60;97.00
26503;DHT22;14177;51.520;6.764;2023-04-25T12:02:56;10.70;97.90
26503;DHT22;14177;51.520;6.764;2023-04-25T12:05:32;10.90;99.30
26503;DHT22;14177;51.520;6.764;2023-04-25T12:08:15;11.10;97.00
26503;DHT22;14177;51.520;6.764;2023-04-25T12:10:45;11.10;97.40
26503;DHT22;14177;51.520;6.764;2023-04-25T12:13:26;11.40;96.60
26503;DHT22;14177;51.520;6.764;2023-04-25T12:15:55;11.70;95.60
26503;DHT22;14177;51.520;6.764;2023-04-25T12:18:24;12.20;93.40
26503;DHT22;14177;51.520;6.764;2023-04-25T12:20:54;12.70;82.40
26503;DHT22;14177;51.520;6.764;2023-04-25T12:23:28;13.00;71.70
26503;DHT22;14177;51.520;6.764;2023-04-25T12:25:56;12.90;68.80
26503;DHT22;14177;51.520;6.764;2023-04-25T12:28:25;13.20;72.40
26503;DHT22;14177;51.520;6.764;2023-04-25T12:31:05;13.80;68.00
26503;DHT22;14177;51.520;6.764;2023-04-25T12:33:37;14.30;67.90
26503;DHT22;14177;51.520;6.764;2023-04-25T12:36:06;14.80;67.00
26503;DHT22;14177;51.520;6.764;2023-04-25T12:38:39;15.20;64.80
26503;DHT22;14177;51.520;6.764;2023-04-25T12:41:08;14.90;63.00
26503;DHT22;14177;51.520;6.764;2023-04-25T12:43:39;14.50;63.40
26503;DHT22;14177;51.520;6.764;2023-04-25T12:46:06;13.80;65.90
26503;DHT22;14177;51.520;6.764;2023-04-25T12:48:33;13.40;69.60
26503;DHT22;14177;51.520;6.764;2023-04-25T12:51:00;13.00;73.00
26503;DHT22;14177;51.520;6.764;2023-04-25T12:53:28;12.70;76.30
26503;DHT22;14177;51.520;6.764;2023-04-25T12:55:55;12.40;81.90
26503;DHT22;14177;51.520;6.764;2023-04-25T12:58:22;12.20;86.60
26503;DHT22;14177;51.520;6.764;2023-04-25T13:00:50;12.20;90.20
26503;DHT22;14177;51.520;6.764;2023-04-25T13:03:17;12.20;91.40
26503;DHT22;14177;51.520;6.764;2023-04-25T13:05:44;12.30;93.30
26503;DHT22;14177;51.520;6.764;2023-04-25T13:08:12;12.70;92.60
26503;DHT22;14177;51.520;6.764;2023-04-25T13:10:39;13.10;90.90
26503;DHT22;14177;51.520;6.764;2023-04-25T13:13:06;13.70;88.90
26503;DHT22;14177;51.520;6.764;2023-04-25T13:15:33;14.20;76.20
26503;DHT22;14177;51.520;6.764;2023-04-25T13:18:00;14.40;72.20
26503;DHT22;14177;51.520;6.764;2023-04-25T13:20:28;14.70;72.20
26503;DHT22;14177;51.520;6.764;2023-04-25T13:22:55;14.90;66.80
26503;DHT22;14177;51.520;6.764;2023-04-25T13:25:22;14.90;65.10
26503;DHT22;14177;51.520;6.764;2023-04-25T13:27:49;14.90;66.10
26503;DHT22;14177;51.520;6.764;2023-04-25T13:30:16;15.20;64.50
26503;DHT22;14177;51.520;6.764;2023-04-25T13:32:43;15.40;63.50
26503;DHT22;14177;51.520;6.764;2023-04-25T13:35:11;15.70;63.40
26503;DHT22;14177;51.520;6.764;2023-04-25T13:37:40;16.00;60.40
26503;DHT22;14177;51.520;6.764;2023-04-25T13:40:09;16.00;55.80
26503;DHT22;14177;51.520;6.764;2023-04-25T13:42:38;16.00;55.30
26503;DHT22;14177;51.520;6.764;2023-04-25T13:45:07;15.70;55.40
26503;DHT22;14177;51.520;6.764;2023-04-25T13:47:35;15.60;56.00
26503;DHT22;14177;51.520;6.764;2023-04-25T13:50:03;15.70;55.80
26503;DHT22;14177;51.520;6.764;2023-04-25T13:52:32;15.80;56.30
26503;DHT22;14177;51.520;6.764;2023-04-25T13:54:59;15.80;54.70
26503;DHT22;14177;51.520;6.764;2023-04-25T13:57:26;15.60;56.30
26503;DHT22;14177;51.520;6.764;2023-04-25T13:59:54;15.90;57.00
26503;DHT22;14177;51.520;6.764;2023-04-25T14:02:21;16.20;57.00
26503;DHT22;14177;51.520;6.764;2023-04-25T14:04:48;16.40;54.70
26503;DHT22;14177;51.520;6.764;2023-04-25T14:07:15;16.20;53.90
26503;DHT22;14177;51.520;6.764;2023-04-25T14:09:42;15.90;54.70
26503;DHT22;14177;51.520;6.764;2023-04-25T14:12:10;15.50;55.90
26503;DHT22;14177;51.520;6.764;2023-04-25T14:14:37;15.10;56.90
26503;DHT22;14177;51.520;6.764;2023-04-25T14:17:04;14.70;55.40
26503;DHT22;14177;51.520;6.764;2023-04-25T14:19:33;14.30;56.80
26503;DHT22;14177;51.520;6.764;2023-04-25T14:22:00;13.90;56.90
26503;DHT22;14177;51.520;6.764;2023-04-25T14:24:27;13.70;58.90
26503;DHT22;14177;51.520;6.764;2023-04-25T14:26:54;13.60;61.20
26503;DHT22;14177;51.520;6.764;2023-04-25T14:29:21;13.80;62.00
26503;DHT22;14177;51.520;6.764;2023-04-25T14:31:48;14.10;61.90
26503;DHT22;14177;51.520;6.764;2023-04-25T14:34:16;14.20;61.10
26503;DHT22;14177;51.520;6.764;2023-04-25T14:36:43;14.10;61.70
26503;DHT22;14177;51.520;6.764;2023-04-25T14:39:10;14.00;61.20
26503;DHT22;14177;51.520;6.764;2023-04-25T14:41:39;13.90;61.80
26503;DHT22;14177;51.520;6.764;2023-04-25T14:44:06;13.70;62.40
26503;DHT22;14177;51.520;6.764;2023-04-25T14:46:33;13.70;63.90
26503;DHT22;14177;51.520;6.764;2023-04-25T14:49:00;13.70;64.40
26503;DHT22;14177;51.520;6.764;2023-04-25T14:51:28;13.70;63.50
26503;DHT22;14177;51.520;6.764;2023-04-25T14:53:55;13.80;63.30
26503;DHT22;14177;51.520;6.764;2023-04-25T14:56:22;14.00;61.90
26503;DHT22;14177;51.520;6.764;2023-04-25T14:58:50;14.10;62.30
26503;DHT22;14177;51.520;6.764;2023-04-25T15:01:17;14.20;61.10
26503;DHT22;14177;51.520;6.764;2023-04-25T15:03:44;14.20;60.20
26503;DHT22;14177;51.520;6.764;2023-04-25T15:06:12;14.30;59.30
26503;DHT22;14177;51.520;6.764;2023-04-25T15:08:39;14.30;59.80
26503;DHT22;14177;51.520;6.764;2023-04-25T15:11:06;14.40;59.30
26503;DHT22;14177;51.520;6.764;2023-04-25T15:13:33;14.50;59.50
26503;DHT22;14177;51.520;6.764;2023-04-25T15:16:01;14.50;57.60
26503;DHT22;14177;51.520;6.764;2023-04-25T15:18:28;14.50;57.80
26503;DHT22;14177;51.520;6.764;2023-04-25T15:20:55;14.50;55.50
26503;DHT22;14177;51.520;6.764;2023-04-25T15:23:23;14.50;55.20
26503;DHT22;14177;51.520;6.764;2023-04-25T15:25:51;14.60;54.70
26503;DHT22;14177;51.520;6.764;2023-04-25T15:28:21;14.50;54.10
26503;DHT22;14177;51.520;6.764;2023-04-25T15:30:49;14.50;54.50
26503;DHT22;14177;51.520;6.764;2023-04-25T15:33:17;14.50;53.90
26503;DHT22;14177;51.520;6.764;2023-04-25T15:35:44;14.60;54.50
26503;DHT22;14177;51.520;6.764;2023-04-25T15:38:11;14.70;54.60
26503;DHT22;14177;51.520;6.764;2023-04-25T15:40:38;14.70;55.20
26503;DHT22;14177;51.520;6.764;2023-04-25T15:43:06;14.50;55.70
26503;DHT22;14177;51.520;6.764;2023-04-25T15:45:36;14.20;56.40
26503;DHT22;14177;51.520;6.764;2023-04-25T15:48:04;13.90;57.50
26503;DHT22;14177;51.520;6.764;2023-04-25T15:50:32;13.60;57.90
26503;DHT22;14177;51.520;6.764;2023-04-25T15:52:59;13.50;58.10
26503;DHT22;14177;51.520;6.764;2023-04-25T15:55:27;13.40;58.30
26503;DHT22;14177;51.520;6.764;2023-04-25T15:57:54;13.40;56.80
26503;DHT22;14177;51.520;6.764;2023-04-25T16:00:22;13.20;57.10
26503;DHT22;14177;51.520;6.764;2023-04-25T16:02:54;13.20;57.40
26503;DHT22;14177;51.520;6.764;2023-04-25T16:05:22;13.20;57.90